PWSweather.com
Personal Weather Stations
Station Observations

PoschiavoCH

Lat: 46.31962499999999, Lon: 10.066551000000004

Elevation: 3517

Station Type: WH 1080

http://www.meteoposchiavo.com

High Low Average
Temperature 46.0°F7.8°C 28.0°F-2.2°C 36.6°F2.6°C
Dew Point 32.5°F0.3°C 14.9°F-9.5°C 21.1°F-6.1°C
Winds 3.5 mph 5.6 kmh Calm Calm 1.0 mph ESE1.6 kmh ESE
Wind Gusts 5.8 mph9.3 kmh -- 1.0 mph1.6 kmh
Humidity 96% 30% 56%
Pressure 26.56 in899.4 mb 26.36 in892.7 mb -
Precipitation 0.01 in0.3 mm - -
Hour Temp Dew Point Humidity Winds Wind Gusts Pressure Precip Precip Rate Daily Precip Total
12:00 AM 33.0°F0.6°C 16.4°F-8.7°C 50% Calm Calm -- 26.51 in897.7 mb - 0.00 in0.0 mm 0.00 in0.0 mm
12:10 AM 33.0°F0.6°C 16.4°F-8.7°C 50% Calm Calm -- 26.52 in898.1 mb - 0.00 in0.0 mm 0.00 in0.0 mm
12:15 AM 33.0°F0.6°C 15.9°F-8.9°C 49% Calm Calm -- 26.51 in897.7 mb - 0.00 in0.0 mm 0.00 in0.0 mm
12:20 AM 33.0°F0.6°C 16.4°F-8.7°C 50% Calm Calm -- 26.51 in897.7 mb - 0.00 in0.0 mm 0.00 in0.0 mm
12:25 AM 33.0°F0.6°C 15.4°F-9.2°C 48% Calm Calm -- 26.50 in897.4 mb - 0.00 in0.0 mm 0.00 in0.0 mm
12:30 AM 33.0°F0.6°C 17.3°F-8.2°C 52% Calm Calm -- 26.51 in897.7 mb - 0.00 in0.0 mm 0.00 in0.0 mm
12:35 AM 32.0°F0.0°C 16.8°F-8.4°C 53% Calm Calm -- 26.51 in897.7 mb - 0.00 in0.0 mm 0.00 in0.0 mm
12:40 AM 33.0°F0.6°C 15.9°F-8.9°C 49% Calm Calm 1.2 mph1.9 kmh 26.51 in897.7 mb - 0.00 in0.0 mm 0.00 in0.0 mm
12:45 AM 33.0°F0.6°C 16.8°F-8.4°C 51% Calm Calm -- 26.50 in897.4 mb - 0.00 in0.0 mm 0.00 in0.0 mm
12:50 AM 33.0°F0.6°C 17.3°F-8.2°C 52% Calm Calm -- 26.50 in897.4 mb - 0.00 in0.0 mm 0.00 in0.0 mm
12:55 AM 33.0°F0.6°C 18.1°F-7.7°C 54% Calm Calm -- 26.51 in897.7 mb - 0.00 in0.0 mm 0.00 in0.0 mm
01:00 AM 32.0°F0.0°C 16.3°F-8.7°C 52% Calm Calm -- 26.51 in897.7 mb - 0.00 in0.0 mm 0.00 in0.0 mm
01:10 AM 32.0°F0.0°C 16.8°F-8.4°C 53% Calm Calm -- 26.51 in897.7 mb - 0.00 in0.0 mm 0.00 in0.0 mm
01:15 AM 32.0°F0.0°C 17.2°F-8.2°C 54% Calm Calm -- 26.52 in898.1 mb - 0.00 in0.0 mm 0.00 in0.0 mm
01:20 AM 32.0°F0.0°C 17.2°F-8.2°C 54% Calm Calm -- 26.52 in898.1 mb - 0.00 in0.0 mm 0.00 in0.0 mm
01:25 AM 31.0°F-0.6°C 16.3°F-8.7°C 54% Calm Calm -- 26.52 in898.1 mb - 0.00 in0.0 mm 0.00 in0.0 mm
01:30 AM 32.0°F0.0°C 15.9°F-8.9°C 51% Calm Calm -- 26.53 in898.4 mb - 0.00 in0.0 mm 0.00 in0.0 mm
01:35 AM 32.8°F0.4°C 16.7°F-8.5°C 51% Calm Calm -- 26.52 in898.1 mb - 0.00 in0.0 mm 0.00 in0.0 mm
01:40 AM 33.0°F0.6°C 17.3°F-8.2°C 52% Calm Calm -- 26.52 in898.1 mb - 0.00 in0.0 mm 0.00 in0.0 mm
01:45 AM 32.0°F0.0°C 16.8°F-8.4°C 53% Calm Calm -- 26.52 in898.1 mb - 0.00 in0.0 mm 0.00 in0.0 mm
01:50 AM 32.0°F0.0°C 16.8°F-8.4°C 53% Calm Calm -- 26.53 in898.4 mb - 0.00 in0.0 mm 0.00 in0.0 mm
01:55 AM 31.0°F-0.6°C 15.8°F-9.0°C 53% Calm Calm -- 26.51 in897.7 mb - 0.00 in0.0 mm 0.00 in0.0 mm
02:00 AM 32.0°F0.0°C 15.0°F-9.4°C 49% Calm Calm -- 26.51 in897.7 mb - 0.00 in0.0 mm 0.00 in0.0 mm
02:10 AM 32.0°F0.0°C 17.6°F-8.0°C 55% Calm Calm -- 26.51 in897.7 mb - 0.00 in0.0 mm 0.00 in0.0 mm
02:15 AM 32.0°F0.0°C 18.1°F-7.7°C 56% Calm Calm -- 26.52 in898.1 mb - 0.00 in0.0 mm 0.00 in0.0 mm
02:20 AM 31.0°F-0.6°C 16.3°F-8.7°C 54% Calm Calm -- 26.52 in898.1 mb - 0.00 in0.0 mm 0.00 in0.0 mm
02:25 AM 31.0°F-0.6°C 16.3°F-8.7°C 54% Calm Calm -- 26.52 in898.1 mb - 0.00 in0.0 mm 0.00 in0.0 mm
02:30 AM 32.0°F0.0°C 16.8°F-8.4°C 53% Calm Calm -- 26.52 in898.1 mb - 0.00 in0.0 mm 0.00 in0.0 mm
02:35 AM 32.0°F0.0°C 15.4°F-9.2°C 50% Calm Calm -- 26.52 in898.1 mb - 0.00 in0.0 mm 0.00 in0.0 mm
02:40 AM 32.0°F0.0°C 15.9°F-8.9°C 51% Calm Calm -- 26.52 in898.1 mb - 0.00 in0.0 mm 0.00 in0.0 mm
02:45 AM 32.0°F0.0°C 18.1°F-7.7°C 56% Calm Calm -- 26.52 in898.1 mb - 0.00 in0.0 mm 0.00 in0.0 mm
02:50 AM 32.0°F0.0°C 15.9°F-8.9°C 51% Calm Calm 1.2 mph1.9 kmh 26.53 in898.4 mb - 0.00 in0.0 mm 0.00 in0.0 mm
02:55 AM 32.0°F0.0°C 16.8°F-8.4°C 53% Calm Calm -- 26.53 in898.4 mb - 0.00 in0.0 mm 0.00 in0.0 mm
03:00 AM 31.0°F-0.6°C 16.7°F-8.5°C 55% Calm Calm -- 26.53 in898.4 mb - 0.00 in0.0 mm 0.00 in0.0 mm
03:10 AM 31.0°F-0.6°C 16.7°F-8.5°C 55% Calm Calm -- 26.53 in898.4 mb - 0.00 in0.0 mm 0.00 in0.0 mm
03:15 AM 31.0°F-0.6°C 15.0°F-9.4°C 51% Calm Calm -- 26.53 in898.4 mb - 0.00 in0.0 mm 0.00 in0.0 mm
03:20 AM 32.0°F0.0°C 15.9°F-8.9°C 51% Calm Calm -- 26.53 in898.4 mb - 0.00 in0.0 mm 0.00 in0.0 mm
03:25 AM 32.0°F0.0°C 17.2°F-8.2°C 54% Calm Calm -- 26.54 in898.7 mb - 0.00 in0.0 mm 0.00 in0.0 mm
03:30 AM 32.0°F0.0°C 16.8°F-8.4°C 53% Calm Calm -- 26.53 in898.4 mb - 0.00 in0.0 mm 0.00 in0.0 mm
03:35 AM 32.0°F0.0°C 16.8°F-8.4°C 53% Calm Calm -- 26.53 in898.4 mb - 0.00 in0.0 mm 0.00 in0.0 mm
03:40 AM 31.0°F-0.6°C 15.8°F-9.0°C 53% Calm Calm -- 26.54 in898.7 mb - 0.00 in0.0 mm 0.00 in0.0 mm
03:45 AM 32.0°F0.0°C 15.4°F-9.2°C 50% Calm Calm -- 26.53 in898.4 mb - 0.00 in0.0 mm 0.00 in0.0 mm
03:50 AM 33.0°F0.6°C 16.4°F-8.7°C 50% Calm Calm -- 26.53 in898.4 mb - 0.00 in0.0 mm 0.00 in0.0 mm
03:55 AM 32.0°F0.0°C 17.6°F-8.0°C 55% Calm Calm -- 26.54 in898.7 mb - 0.00 in0.0 mm 0.00 in0.0 mm
04:00 AM 32.0°F0.0°C 16.8°F-8.4°C 53% Calm Calm -- 26.53 in898.4 mb - 0.00 in0.0 mm 0.00 in0.0 mm
04:15 AM 31.0°F-0.6°C 15.8°F-9.0°C 53% Calm Calm -- 26.53 in898.4 mb - 0.00 in0.0 mm 0.00 in0.0 mm
04:20 AM 31.0°F-0.6°C 17.1°F-8.3°C 56% Calm Calm -- 26.54 in898.7 mb - 0.00 in0.0 mm 0.00 in0.0 mm
04:25 AM 31.0°F-0.6°C 17.5°F-8.1°C 57% Calm Calm -- 26.54 in898.7 mb - 0.00 in0.0 mm 0.00 in0.0 mm
04:30 AM 31.0°F-0.6°C 15.8°F-9.0°C 53% Calm Calm -- 26.53 in898.4 mb - 0.00 in0.0 mm 0.00 in0.0 mm
04:35 AM 31.0°F-0.6°C 17.1°F-8.3°C 56% Calm Calm -- 26.53 in898.4 mb - 0.00 in0.0 mm 0.00 in0.0 mm
04:40 AM 31.0°F-0.6°C 17.1°F-8.3°C 56% Calm Calm -- 26.54 in898.7 mb - 0.00 in0.0 mm 0.00 in0.0 mm
04:45 AM 31.0°F-0.6°C 15.8°F-9.0°C 53% Calm Calm -- 26.53 in898.4 mb - 0.00 in0.0 mm 0.00 in0.0 mm
04:50 AM 31.0°F-0.6°C 17.1°F-8.3°C 56% Calm Calm -- 26.53 in898.4 mb - 0.00 in0.0 mm 0.00 in0.0 mm
04:55 AM 31.0°F-0.6°C 17.5°F-8.1°C 57% Calm Calm -- 26.54 in898.7 mb - 0.00 in0.0 mm 0.00 in0.0 mm
05:00 AM 30.8°F-0.7°C 17.7°F-7.9°C 58% Calm Calm -- 26.54 in898.7 mb - 0.00 in0.0 mm 0.00 in0.0 mm
05:10 AM 30.0°F-1.1°C 16.6°F-8.6°C 57% Calm Calm -- 26.53 in898.4 mb - 0.00 in0.0 mm 0.00 in0.0 mm
05:15 AM 30.0°F-1.1°C 16.2°F-8.8°C 56% Calm Calm -- 26.54 in898.7 mb - 0.00 in0.0 mm 0.00 in0.0 mm
05:20 AM 31.0°F-0.6°C 15.8°F-9.0°C 53% Calm Calm -- 26.54 in898.7 mb - 0.00 in0.0 mm 0.00 in0.0 mm
05:25 AM 30.0°F-1.1°C 16.2°F-8.8°C 56% Calm Calm -- 26.54 in898.7 mb - 0.00 in0.0 mm 0.00 in0.0 mm
05:30 AM 29.0°F-1.7°C 16.4°F-8.7°C 59% Calm Calm -- 26.54 in898.7 mb - 0.00 in0.0 mm 0.00 in0.0 mm
05:35 AM 29.0°F-1.7°C 17.6°F-8.0°C 62% Calm Calm -- 26.54 in898.7 mb - 0.00 in0.0 mm 0.00 in0.0 mm
05:40 AM 29.0°F-1.7°C 16.1°F-8.8°C 58% Calm Calm -- 26.54 in898.7 mb - 0.00 in0.0 mm 0.00 in0.0 mm
05:45 AM 29.0°F-1.7°C 16.8°F-8.4°C 60% Calm Calm -- 26.55 in899.1 mb - 0.00 in0.0 mm 0.00 in0.0 mm
05:50 AM 29.0°F-1.7°C 17.2°F-8.2°C 61% Calm Calm -- 26.55 in899.1 mb - 0.00 in0.0 mm 0.00 in0.0 mm
05:55 AM 29.0°F-1.7°C 17.6°F-8.0°C 62% Calm Calm -- 26.55 in899.1 mb - 0.00 in0.0 mm 0.00 in0.0 mm
06:00 AM 29.0°F-1.7°C 18.3°F-7.6°C 64% Calm Calm 1.2 mph1.9 kmh 26.55 in899.1 mb - 0.00 in0.0 mm 0.00 in0.0 mm
06:10 AM 29.0°F-1.7°C 17.2°F-8.2°C 61% Calm Calm -- 26.55 in899.1 mb - 0.00 in0.0 mm 0.00 in0.0 mm
06:15 AM 29.0°F-1.7°C 17.2°F-8.2°C 61% Calm Calm -- 26.55 in899.1 mb - 0.00 in0.0 mm 0.00 in0.0 mm
06:20 AM 29.0°F-1.7°C 16.8°F-8.4°C 60% Calm Calm -- 26.55 in899.1 mb - 0.00 in0.0 mm 0.00 in0.0 mm
06:25 AM 29.0°F-1.7°C 18.3°F-7.6°C 64% Calm Calm -- 26.55 in899.1 mb - 0.00 in0.0 mm 0.00 in0.0 mm
06:30 AM 28.2°F-2.1°C 16.9°F-8.4°C 62% Calm Calm -- 26.56 in899.4 mb - 0.00 in0.0 mm 0.00 in0.0 mm
06:35 AM 28.0°F-2.2°C 16.3°F-8.7°C 61% Calm Calm -- 26.56 in899.4 mb - 0.00 in0.0 mm 0.00 in0.0 mm
06:40 AM 28.0°F-2.2°C 16.3°F-8.7°C 61% Calm Calm -- 26.56 in899.4 mb - 0.00 in0.0 mm 0.00 in0.0 mm
06:45 AM 29.0°F-1.7°C 16.4°F-8.7°C 59% Calm Calm -- 26.55 in899.1 mb - 0.00 in0.0 mm 0.00 in0.0 mm
06:50 AM 29.0°F-1.7°C 16.8°F-8.4°C 60% Calm Calm -- 26.55 in899.1 mb - 0.00 in0.0 mm 0.00 in0.0 mm
06:55 AM 29.0°F-1.7°C 17.6°F-8.0°C 62% Calm Calm -- 26.55 in899.1 mb - 0.00 in0.0 mm 0.00 in0.0 mm
07:00 AM 28.0°F-2.2°C 17.7°F-7.9°C 65% Calm Calm -- 26.55 in899.1 mb - 0.00 in0.0 mm 0.00 in0.0 mm
07:10 AM 28.0°F-2.2°C 17.0°F-8.3°C 63% Calm Calm 1.2 mph1.9 kmh 26.56 in899.4 mb - 0.00 in0.0 mm 0.00 in0.0 mm
07:15 AM 29.0°F-1.7°C 18.0°F-7.8°C 63% Calm Calm -- 26.56 in899.4 mb - 0.00 in0.0 mm 0.00 in0.0 mm
07:20 AM 29.0°F-1.7°C 18.3°F-7.6°C 64% Calm Calm -- 26.56 in899.4 mb - 0.00 in0.0 mm 0.00 in0.0 mm
07:25 AM 29.0°F-1.7°C 16.4°F-8.7°C 59% Calm Calm -- 26.56 in899.4 mb - 0.00 in0.0 mm 0.00 in0.0 mm
07:30 AM 29.0°F-1.7°C 17.6°F-8.0°C 62% Calm Calm -- 26.56 in899.4 mb - 0.00 in0.0 mm 0.00 in0.0 mm
07:35 AM 30.0°F-1.1°C 17.8°F-7.9°C 60% Calm Calm -- 26.55 in899.1 mb - 0.00 in0.0 mm 0.00 in0.0 mm
07:40 AM 30.0°F-1.1°C 17.0°F-8.3°C 58% Calm Calm -- 26.55 in899.1 mb - 0.00 in0.0 mm 0.00 in0.0 mm
07:45 AM 30.0°F-1.1°C 17.4°F-8.1°C 59% Calm Calm -- 26.56 in899.4 mb - 0.00 in0.0 mm 0.00 in0.0 mm
07:50 AM 29.0°F-1.7°C 17.6°F-8.0°C 62% Calm Calm -- 26.55 in899.1 mb - 0.00 in0.0 mm 0.00 in0.0 mm
07:55 AM 29.0°F-1.7°C 18.0°F-7.8°C 63% Calm Calm -- 26.55 in899.1 mb - 0.00 in0.0 mm 0.00 in0.0 mm
08:00 AM 29.0°F-1.7°C 18.0°F-7.8°C 63% Calm Calm -- 26.55 in899.1 mb - 0.00 in0.0 mm 0.00 in0.0 mm
08:10 AM 30.0°F-1.1°C 16.6°F-8.6°C 57% Calm Calm -- 26.54 in898.7 mb - 0.00 in0.0 mm 0.00 in0.0 mm
08:15 AM 30.0°F-1.1°C 16.6°F-8.6°C 57% Calm Calm -- 26.54 in898.7 mb - 0.00 in0.0 mm 0.00 in0.0 mm
08:20 AM 31.0°F-0.6°C 16.3°F-8.7°C 54% Calm Calm -- 26.54 in898.7 mb - 0.00 in0.0 mm 0.00 in0.0 mm
08:25 AM 30.0°F-1.1°C 17.0°F-8.3°C 58% Calm Calm -- 26.54 in898.7 mb - 0.00 in0.0 mm 0.00 in0.0 mm
08:30 AM 30.0°F-1.1°C 18.2°F-7.7°C 61% Calm Calm -- 26.55 in899.1 mb - 0.00 in0.0 mm 0.00 in0.0 mm
08:35 AM 30.0°F-1.1°C 17.8°F-7.9°C 60% Calm Calm -- 26.54 in898.7 mb - 0.00 in0.0 mm 0.00 in0.0 mm
08:40 AM 30.3°F-0.9°C 17.7°F-7.9°C 59% Calm Calm -- 26.54 in898.7 mb - 0.00 in0.0 mm 0.00 in0.0 mm
08:45 AM 31.0°F-0.6°C 17.9°F-7.8°C 58% Calm Calm -- 26.55 in899.1 mb - 0.00 in0.0 mm 0.00 in0.0 mm
08:50 AM 32.0°F0.0°C 17.6°F-8.0°C 55% Calm Calm -- 26.54 in898.7 mb - 0.00 in0.0 mm 0.00 in0.0 mm
08:55 AM 33.0°F0.6°C 17.3°F-8.2°C 52% Calm Calm -- 26.54 in898.7 mb - 0.00 in0.0 mm 0.00 in0.0 mm
09:00 AM 35.0°F1.7°C 17.3°F-8.2°C 48% Calm Calm -- 26.53 in898.4 mb - 0.00 in0.0 mm 0.00 in0.0 mm
09:10 AM 35.0°F1.7°C 16.8°F-8.4°C 47% Calm Calm -- 26.53 in898.4 mb - 0.00 in0.0 mm 0.00 in0.0 mm
09:15 AM 35.0°F1.7°C 16.3°F-8.7°C 46% Calm Calm -- 26.51 in897.7 mb - 0.00 in0.0 mm 0.00 in0.0 mm
09:20 AM 35.0°F1.7°C 15.8°F-9.0°C 45% Calm Calm -- 26.51 in897.7 mb - 0.00 in0.0 mm 0.00 in0.0 mm
09:25 AM 35.1°F1.7°C 15.3°F-9.3°C 44% Calm Calm -- 26.51 in897.7 mb - 0.00 in0.0 mm 0.00 in0.0 mm
09:30 AM 37.0°F2.8°C 17.1°F-8.3°C 44% Calm Calm -- 26.51 in897.7 mb - 0.00 in0.0 mm 0.00 in0.0 mm
09:35 AM 37.0°F2.8°C 16.5°F-8.6°C 43% Calm Calm 1.2 mph1.9 kmh 26.51 in897.7 mb - 0.00 in0.0 mm 0.00 in0.0 mm
09:40 AM 38.0°F3.3°C 15.8°F-9.0°C 40% 2.3 mph NW3.7 kmh NW 3.5 mph5.6 kmh 26.50 in897.4 mb - 0.00 in0.0 mm 0.00 in0.0 mm
09:45 AM 39.0°F3.9°C 16.1°F-8.8°C 39% Calm Calm -- 26.49 in897.1 mb - 0.00 in0.0 mm 0.00 in0.0 mm
09:50 AM 40.0°F4.4°C 16.4°F-8.7°C 38% Calm Calm 1.2 mph1.9 kmh 26.49 in897.1 mb - 0.00 in0.0 mm 0.00 in0.0 mm
09:55 AM 40.0°F4.4°C 15.8°F-9.0°C 37% Calm Calm -- 26.49 in897.1 mb - 0.00 in0.0 mm 0.00 in0.0 mm
10:00 AM 40.9°F4.9°C 17.8°F-7.9°C 39% 2.3 mph NW3.7 kmh NW 2.3 mph3.7 kmh 26.49 in897.1 mb - 0.00 in0.0 mm 0.00 in0.0 mm
10:10 AM 41.0°F5.0°C 17.3°F-8.2°C 38% 2.3 mph NNW3.7 kmh NNW 3.5 mph5.6 kmh 26.48 in896.7 mb - 0.00 in0.0 mm 0.00 in0.0 mm
10:15 AM 42.0°F5.6°C 14.9°F-9.5°C 33% 2.3 mph NW3.7 kmh NW 2.3 mph3.7 kmh 26.48 in896.7 mb - 0.00 in0.0 mm 0.00 in0.0 mm
10:20 AM 42.0°F5.6°C 18.2°F-7.7°C 38% 2.3 mph NW3.7 kmh NW 3.5 mph5.6 kmh 26.48 in896.7 mb - 0.00 in0.0 mm 0.00 in0.0 mm
10:25 AM 42.0°F5.6°C 18.8°F-7.3°C 39% 3.5 mph W5.6 kmh W 5.8 mph9.3 kmh 26.47 in896.4 mb - 0.00 in0.0 mm 0.00 in0.0 mm
10:30 AM 42.0°F5.6°C 19.4°F-7.0°C 40% 2.3 mph NW3.7 kmh NW 3.5 mph5.6 kmh 26.47 in896.4 mb - 0.00 in0.0 mm 0.00 in0.0 mm
10:35 AM 42.0°F5.6°C 20.5°F-6.4°C 42% 2.3 mph W3.7 kmh W 3.5 mph5.6 kmh 26.48 in896.7 mb - 0.00 in0.0 mm 0.00 in0.0 mm
10:40 AM 43.0°F6.1°C 19.7°F-6.8°C 39% 2.3 mph WSW3.7 kmh WSW 3.5 mph5.6 kmh 26.47 in896.4 mb - 0.00 in0.0 mm 0.00 in0.0 mm
10:45 AM 43.0°F6.1°C 20.3°F-6.5°C 40% 2.3 mph NW3.7 kmh NW 3.5 mph5.6 kmh 26.47 in896.4 mb - 0.00 in0.0 mm 0.00 in0.0 mm
10:50 AM 43.0°F6.1°C 20.3°F-6.5°C 40% 2.3 mph NNE3.7 kmh NNE 3.5 mph5.6 kmh 26.47 in896.4 mb - 0.00 in0.0 mm 0.00 in0.0 mm
10:55 AM 43.0°F6.1°C 19.7°F-6.8°C 39% 3.5 mph NNW5.6 kmh NNW 5.8 mph9.3 kmh 26.47 in896.4 mb - 0.00 in0.0 mm 0.00 in0.0 mm
11:00 AM 43.0°F6.1°C 19.1°F-7.2°C 38% 3.5 mph NW5.6 kmh NW 3.5 mph5.6 kmh 26.47 in896.4 mb - 0.00 in0.0 mm 0.00 in0.0 mm
11:10 AM 44.0°F6.7°C 18.1°F-7.7°C 35% 3.5 mph NNW5.6 kmh NNW 3.5 mph5.6 kmh 26.47 in896.4 mb - 0.00 in0.0 mm 0.00 in0.0 mm
11:15 AM 44.0°F6.7°C 18.1°F-7.7°C 35% 2.3 mph NW3.7 kmh NW 2.3 mph3.7 kmh 26.46 in896.0 mb - 0.00 in0.0 mm 0.00 in0.0 mm
11:20 AM 44.0°F6.7°C 20.0°F-6.7°C 38% 3.5 mph WNW5.6 kmh WNW 3.5 mph5.6 kmh 26.46 in896.0 mb - 0.00 in0.0 mm 0.00 in0.0 mm
11:25 AM 44.0°F6.7°C 19.4°F-7.0°C 37% 2.3 mph NNW3.7 kmh NNW 3.5 mph5.6 kmh 26.46 in896.0 mb - 0.00 in0.0 mm 0.00 in0.0 mm
11:30 AM 43.2°F6.2°C 18.0°F-7.8°C 36% 2.3 mph N3.7 kmh N 3.5 mph5.6 kmh 26.46 in896.0 mb - 0.00 in0.0 mm 0.00 in0.0 mm
11:35 AM 44.0°F6.7°C 16.7°F-8.5°C 33% 2.3 mph N3.7 kmh N 3.5 mph5.6 kmh 26.45 in895.7 mb - 0.00 in0.0 mm 0.00 in0.0 mm
11:40 AM 45.0°F7.2°C 19.6°F-6.9°C 36% 3.5 mph NW5.6 kmh NW 5.8 mph9.3 kmh 26.46 in896.0 mb - 0.00 in0.0 mm 0.00 in0.0 mm
11:45 AM 45.0°F7.2°C 19.0°F-7.2°C 35% 2.3 mph NW3.7 kmh NW 2.3 mph3.7 kmh 26.45 in895.7 mb - 0.00 in0.0 mm 0.00 in0.0 mm
11:50 AM 45.0°F7.2°C 17.6°F-8.0°C 33% 3.5 mph W5.6 kmh W 3.5 mph5.6 kmh 26.45 in895.7 mb - 0.00 in0.0 mm 0.00 in0.0 mm
11:55 AM 45.0°F7.2°C 19.0°F-7.2°C 35% 2.3 mph NW3.7 kmh NW 3.5 mph5.6 kmh 26.45 in895.7 mb - 0.00 in0.0 mm 0.00 in0.0 mm
12:00 PM 46.0°F7.8°C 19.2°F-7.1°C 34% 2.3 mph NW3.7 kmh NW 3.5 mph5.6 kmh 26.44 in895.4 mb - 0.00 in0.0 mm 0.00 in0.0 mm
12:10 PM 45.5°F7.5°C 18.0°F-7.8°C 33% 1.2 mph NW1.9 kmh NW 3.5 mph5.6 kmh 26.43 in895.0 mb - 0.00 in0.0 mm 0.00 in0.0 mm
12:15 PM 46.0°F7.8°C 16.3°F-8.7°C 30% 1.2 mph N1.9 kmh N 2.3 mph3.7 kmh 26.43 in895.0 mb - 0.00 in0.0 mm 0.00 in0.0 mm
12:20 PM 46.0°F7.8°C 17.7°F-7.9°C 32% 2.3 mph NW3.7 kmh NW 3.5 mph5.6 kmh 26.43 in895.0 mb - 0.00 in0.0 mm 0.00 in0.0 mm
12:25 PM 46.0°F7.8°C 17.7°F-7.9°C 32% 3.5 mph NW5.6 kmh NW 3.5 mph5.6 kmh 26.43 in895.0 mb - 0.00 in0.0 mm 0.00 in0.0 mm
12:30 PM 46.0°F7.8°C 19.2°F-7.1°C 34% 1.2 mph NW1.9 kmh NW 2.3 mph3.7 kmh 26.43 in895.0 mb - 0.00 in0.0 mm 0.00 in0.0 mm
12:35 PM 46.0°F7.8°C 17.7°F-7.9°C 32% 2.3 mph NW3.7 kmh NW 2.3 mph3.7 kmh 26.43 in895.0 mb - 0.00 in0.0 mm 0.00 in0.0 mm
12:40 PM 46.0°F7.8°C 19.8°F-6.8°C 35% 1.2 mph N1.9 kmh N 2.3 mph3.7 kmh 26.43 in895.0 mb - 0.00 in0.0 mm 0.00 in0.0 mm
12:45 PM 46.0°F7.8°C 18.5°F-7.5°C 33% 3.5 mph W5.6 kmh W 3.5 mph5.6 kmh 26.43 in895.0 mb - 0.00 in0.0 mm 0.00 in0.0 mm
12:50 PM 46.0°F7.8°C 19.2°F-7.1°C 34% 3.5 mph W5.6 kmh W 5.8 mph9.3 kmh 26.41 in894.3 mb - 0.00 in0.0 mm 0.00 in0.0 mm
12:55 PM 46.0°F7.8°C 19.2°F-7.1°C 34% 3.5 mph W5.6 kmh W 5.8 mph9.3 kmh 26.41 in894.3 mb - 0.00 in0.0 mm 0.00 in0.0 mm
01:00 PM 46.0°F7.8°C 18.5°F-7.5°C 33% 2.3 mph W3.7 kmh W 3.5 mph5.6 kmh 26.43 in895.0 mb - 0.00 in0.0 mm 0.00 in0.0 mm
01:10 PM 45.0°F7.2°C 18.3°F-7.6°C 34% 1.2 mph NNW1.9 kmh NNW 1.2 mph1.9 kmh 26.41 in894.3 mb - 0.00 in0.0 mm 0.00 in0.0 mm
01:15 PM 45.0°F7.2°C 19.0°F-7.2°C 35% 2.3 mph NW3.7 kmh NW 3.5 mph5.6 kmh 26.41 in894.3 mb - 0.00 in0.0 mm 0.00 in0.0 mm
01:20 PM 46.0°F7.8°C 18.5°F-7.5°C 33% 2.3 mph NNW3.7 kmh NNW 3.5 mph5.6 kmh 26.41 in894.3 mb - 0.00 in0.0 mm 0.00 in0.0 mm
01:25 PM 45.0°F7.2°C 17.6°F-8.0°C 33% 3.5 mph N5.6 kmh N 3.5 mph5.6 kmh 26.40 in894.0 mb - 0.00 in0.0 mm 0.00 in0.0 mm
01:30 PM 45.0°F7.2°C 19.0°F-7.2°C 35% 3.5 mph W5.6 kmh W 3.5 mph5.6 kmh 26.40 in894.0 mb - 0.00 in0.0 mm 0.00 in0.0 mm
01:35 PM 45.0°F7.2°C 19.6°F-6.9°C 36% 3.5 mph W5.6 kmh W 3.5 mph5.6 kmh 26.39 in893.7 mb - 0.00 in0.0 mm 0.00 in0.0 mm
01:40 PM 45.2°F7.3°C 19.8°F-6.8°C 36% 3.5 mph W5.6 kmh W 3.5 mph5.6 kmh 26.39 in893.7 mb - 0.00 in0.0 mm 0.00 in0.0 mm
01:45 PM 46.0°F7.8°C 19.8°F-6.8°C 35% 1.2 mph WNW1.9 kmh WNW 2.3 mph3.7 kmh 26.39 in893.7 mb - 0.00 in0.0 mm 0.00 in0.0 mm
01:50 PM 45.0°F7.2°C 17.6°F-8.0°C 33% 2.3 mph NW3.7 kmh NW 3.5 mph5.6 kmh 26.39 in893.7 mb - 0.00 in0.0 mm 0.00 in0.0 mm
01:55 PM 45.0°F7.2°C 19.0°F-7.2°C 35% 2.3 mph NNW3.7 kmh NNW 3.5 mph5.6 kmh 26.39 in893.7 mb - 0.00 in0.0 mm 0.00 in0.0 mm
02:00 PM 45.0°F7.2°C 17.6°F-8.0°C 33% 3.5 mph NW5.6 kmh NW 3.5 mph5.6 kmh 26.38 in893.3 mb - 0.00 in0.0 mm 0.00 in0.0 mm
02:10 PM 45.0°F7.2°C 19.6°F-6.9°C 36% 3.5 mph NW5.6 kmh NW 3.5 mph5.6 kmh 26.39 in893.7 mb - 0.00 in0.0 mm 0.00 in0.0 mm
02:15 PM 45.0°F7.2°C 19.0°F-7.2°C 35% 1.2 mph NW1.9 kmh NW 2.3 mph3.7 kmh 26.38 in893.3 mb - 0.00 in0.0 mm 0.00 in0.0 mm
02:20 PM 45.0°F7.2°C 18.3°F-7.6°C 34% 1.2 mph NW1.9 kmh NW 2.3 mph3.7 kmh 26.38 in893.3 mb - 0.00 in0.0 mm 0.00 in0.0 mm
02:25 PM 45.0°F7.2°C 17.6°F-8.0°C 33% 2.3 mph NW3.7 kmh NW 2.3 mph3.7 kmh 26.38 in893.3 mb - 0.00 in0.0 mm 0.00 in0.0 mm
02:30 PM 45.0°F7.2°C 18.3°F-7.6°C 34% 2.3 mph NW3.7 kmh NW 3.5 mph5.6 kmh 26.38 in893.3 mb - 0.00 in0.0 mm 0.00 in0.0 mm
02:35 PM 45.0°F7.2°C 19.0°F-7.2°C 35% 2.3 mph NW3.7 kmh NW 2.3 mph3.7 kmh 26.37 in893.0 mb - 0.00 in0.0 mm 0.00 in0.0 mm
02:40 PM 45.0°F7.2°C 18.3°F-7.6°C 34% 1.2 mph NW1.9 kmh NW 2.3 mph3.7 kmh 26.38 in893.3 mb - 0.00 in0.0 mm 0.00 in0.0 mm
02:45 PM 46.0°F7.8°C 18.5°F-7.5°C 33% Calm Calm -- 26.38 in893.3 mb - 0.00 in0.0 mm 0.00 in0.0 mm
02:50 PM 45.0°F7.2°C 19.0°F-7.2°C 35% 1.2 mph NNW1.9 kmh NNW 1.2 mph1.9 kmh 26.38 in893.3 mb - 0.00 in0.0 mm 0.00 in0.0 mm
02:55 PM 45.0°F7.2°C 18.3°F-7.6°C 34% 1.2 mph NNE1.9 kmh NNE 1.2 mph1.9 kmh 26.38 in893.3 mb - 0.00 in0.0 mm 0.00 in0.0 mm
03:00 PM 45.0°F7.2°C 18.3°F-7.6°C 34% Calm Calm 1.2 mph1.9 kmh 26.37 in893.0 mb - 0.00 in0.0 mm 0.00 in0.0 mm
03:10 PM 45.0°F7.2°C 19.0°F-7.2°C 35% Calm Calm -- 26.37 in893.0 mb - 0.00 in0.0 mm 0.00 in0.0 mm
03:15 PM 45.0°F7.2°C 18.3°F-7.6°C 34% Calm Calm -- 26.37 in893.0 mb - 0.00 in0.0 mm 0.00 in0.0 mm
03:20 PM 45.0°F7.2°C 19.0°F-7.2°C 35% Calm Calm -- 26.37 in893.0 mb - 0.00 in0.0 mm 0.00 in0.0 mm
03:25 PM 45.0°F7.2°C 18.3°F-7.6°C 34% Calm Calm -- 26.37 in893.0 mb - 0.00 in0.0 mm 0.00 in0.0 mm
03:30 PM 45.0°F7.2°C 18.3°F-7.6°C 34% Calm Calm -- 26.36 in892.7 mb - 0.00 in0.0 mm 0.00 in0.0 mm
03:35 PM 46.0°F7.8°C 19.2°F-7.1°C 34% Calm Calm -- 26.36 in892.7 mb - 0.00 in0.0 mm 0.00 in0.0 mm
03:40 PM 45.0°F7.2°C 19.0°F-7.2°C 35% Calm Calm -- 26.37 in893.0 mb - 0.00 in0.0 mm 0.00 in0.0 mm
03:45 PM 45.0°F7.2°C 19.0°F-7.2°C 35% 1.2 mph NNW1.9 kmh NNW 2.3 mph3.7 kmh 26.36 in892.7 mb - 0.00 in0.0 mm 0.00 in0.0 mm
03:50 PM 44.9°F7.2°C 18.8°F-7.3°C 35% 1.2 mph NW1.9 kmh NW 2.3 mph3.7 kmh 26.36 in892.7 mb - 0.00 in0.0 mm 0.00 in0.0 mm
03:55 PM 44.0°F6.7°C 18.7°F-7.4°C 36% Calm Calm -- 26.36 in892.7 mb - 0.00 in0.0 mm 0.00 in0.0 mm
04:00 PM 45.0°F7.2°C 19.0°F-7.2°C 35% Calm Calm -- 26.36 in892.7 mb - 0.00 in0.0 mm 0.00 in0.0 mm
04:10 PM 44.0°F6.7°C 18.7°F-7.4°C 36% 1.2 mph NW1.9 kmh NW 2.3 mph3.7 kmh 26.36 in892.7 mb - 0.00 in0.0 mm 0.00 in0.0 mm
04:15 PM 45.0°F7.2°C 19.6°F-6.9°C 36% Calm Calm -- 26.36 in892.7 mb - 0.00 in0.0 mm 0.00 in0.0 mm
04:20 PM 45.0°F7.2°C 21.5°F-5.8°C 39% Calm Calm -- 26.36 in892.7 mb - 0.00 in0.0 mm 0.00 in0.0 mm
04:25 PM 44.0°F6.7°C 20.0°F-6.7°C 38% Calm Calm -- 26.36 in892.7 mb - 0.00 in0.0 mm 0.00 in0.0 mm
04:30 PM 44.0°F6.7°C 20.6°F-6.3°C 39% Calm Calm -- 26.36 in892.7 mb - 0.00 in0.0 mm 0.00 in0.0 mm
04:35 PM 44.0°F6.7°C 21.2°F-6.0°C 40% Calm Calm -- 26.36 in892.7 mb - 0.00 in0.0 mm 0.00 in0.0 mm
04:40 PM 44.0°F6.7°C 21.2°F-6.0°C 40% Calm Calm -- 26.36 in892.7 mb - 0.00 in0.0 mm 0.00 in0.0 mm
04:45 PM 44.0°F6.7°C 22.4°F-5.3°C 42% Calm Calm -- 26.37 in893.0 mb - 0.00 in0.0 mm 0.00 in0.0 mm
04:50 PM 44.0°F6.7°C 21.2°F-6.0°C 40% Calm Calm -- 26.37 in893.0 mb - 0.00 in0.0 mm 0.00 in0.0 mm
04:55 PM 43.0°F6.1°C 20.3°F-6.5°C 40% 1.2 mph N1.9 kmh N 1.2 mph1.9 kmh 26.37 in893.0 mb - 0.00 in0.0 mm 0.00 in0.0 mm
05:00 PM 43.0°F6.1°C 20.9°F-6.2°C 41% Calm Calm -- 26.37 in893.0 mb - 0.00 in0.0 mm 0.00 in0.0 mm
05:10 PM 43.0°F6.1°C 22.0°F-5.6°C 43% Calm Calm -- 26.37 in893.0 mb - 0.00 in0.0 mm 0.00 in0.0 mm
05:15 PM 42.7°F5.9°C 22.3°F-5.4°C 44% Calm Calm 1.2 mph1.9 kmh 26.37 in893.0 mb - 0.00 in0.0 mm 0.00 in0.0 mm
05:20 PM 42.0°F5.6°C 22.2°F-5.4°C 45% Calm Calm 1.2 mph1.9 kmh 26.37 in893.0 mb - 0.00 in0.0 mm 0.00 in0.0 mm
05:25 PM 42.0°F5.6°C 22.2°F-5.4°C 45% Calm Calm -- 26.36 in892.7 mb - 0.00 in0.0 mm 0.00 in0.0 mm
05:30 PM 42.0°F5.6°C 22.2°F-5.4°C 45% Calm Calm -- 26.37 in893.0 mb - 0.00 in0.0 mm 0.00 in0.0 mm
05:35 PM 42.0°F5.6°C 23.2°F-4.9°C 47% Calm Calm -- 26.37 in893.0 mb - 0.00 in0.0 mm 0.00 in0.0 mm
05:40 PM 42.0°F5.6°C 23.2°F-4.9°C 47% Calm Calm -- 26.38 in893.3 mb - 0.00 in0.0 mm 0.00 in0.0 mm
05:45 PM 41.0°F5.0°C 22.8°F-5.1°C 48% Calm Calm -- 26.37 in893.0 mb - 0.00 in0.0 mm 0.00 in0.0 mm
05:50 PM 41.0°F5.0°C 23.3°F-4.8°C 49% Calm Calm -- 26.38 in893.3 mb - 0.00 in0.0 mm 0.00 in0.0 mm
05:55 PM 41.0°F5.0°C 23.3°F-4.8°C 49% Calm Calm -- 26.38 in893.3 mb - 0.00 in0.0 mm 0.00 in0.0 mm
06:00 PM 41.0°F5.0°C 23.2°F-4.9°C 49% Calm Calm -- 26.38 in893.3 mb - 0.00 in0.0 mm 0.00 in0.0 mm
06:10 PM 40.0°F4.4°C 23.3°F-4.8°C 51% Calm Calm -- 26.39 in893.7 mb - 0.00 in0.0 mm 0.00 in0.0 mm
06:15 PM 40.0°F4.4°C 24.2°F-4.3°C 53% Calm Calm -- 26.39 in893.7 mb - 0.00 in0.0 mm 0.00 in0.0 mm
06:20 PM 40.0°F4.4°C 25.1°F-3.8°C 55% Calm Calm -- 26.39 in893.7 mb - 0.00 in0.0 mm 0.00 in0.0 mm
06:25 PM 40.0°F4.4°C 26.0°F-3.3°C 57% Calm Calm -- 26.38 in893.3 mb - 0.00 in0.0 mm 0.00 in0.0 mm
06:30 PM 40.0°F4.4°C 26.4°F-3.1°C 58% Calm Calm -- 26.38 in893.3 mb - 0.00 in0.0 mm 0.00 in0.0 mm
06:35 PM 39.1°F3.9°C 26.3°F-3.2°C 60% Calm Calm -- 26.38 in893.3 mb - 0.00 in0.0 mm 0.00 in0.0 mm
06:40 PM 39.0°F3.9°C 26.7°F-2.9°C 61% Calm Calm -- 26.38 in893.3 mb - 0.00 in0.0 mm 0.00 in0.0 mm
06:45 PM 39.0°F3.9°C 27.5°F-2.5°C 63% Calm Calm -- 26.38 in893.3 mb - 0.00 in0.0 mm 0.00 in0.0 mm
06:50 PM 38.0°F3.3°C 26.5°F-3.1°C 63% Calm Calm -- 26.38 in893.3 mb - 0.00 in0.0 mm 0.00 in0.0 mm
06:55 PM 38.0°F3.3°C 27.3°F-2.6°C 65% Calm Calm -- 26.40 in894.0 mb - 0.00 in0.0 mm 0.00 in0.0 mm
07:00 PM 38.0°F3.3°C 28.4°F-2.0°C 68% Calm Calm -- 26.39 in893.7 mb - 0.00 in0.0 mm 0.00 in0.0 mm
07:10 PM 37.0°F2.8°C 28.5°F-1.9°C 71% Calm Calm -- 26.39 in893.7 mb - 0.00 in0.0 mm 0.00 in0.0 mm
07:15 PM 37.0°F2.8°C 29.5°F-1.4°C 74% Calm Calm -- 26.39 in893.7 mb - 0.00 in0.0 mm 0.00 in0.0 mm
07:20 PM 37.0°F2.8°C 30.1°F-1.1°C 76% Calm Calm -- 26.39 in893.7 mb - 0.00 in0.0 mm 0.00 in0.0 mm
07:25 PM 37.0°F2.8°C 30.8°F-0.7°C 78% Calm Calm -- 26.40 in894.0 mb - 0.00 in0.0 mm 0.00 in0.0 mm
07:30 PM 36.8°F2.7°C 31.2°F-0.4°C 80% Calm Calm -- 26.40 in894.0 mb - 0.00 in0.0 mm 0.00 in0.0 mm
07:35 PM 36.0°F2.2°C 31.0°F-0.6°C 82% Calm Calm -- 26.39 in893.7 mb - 0.00 in0.0 mm 0.00 in0.0 mm
07:40 PM 36.0°F2.2°C 31.6°F-0.2°C 84% Calm Calm -- 26.41 in894.3 mb - 0.00 in0.0 mm 0.00 in0.0 mm
07:45 PM 36.0°F2.2°C 31.9°F-0.1°C 85% Calm Calm -- 26.41 in894.3 mb - 0.00 in0.0 mm 0.00 in0.0 mm
07:50 PM 35.0°F1.7°C 31.2°F-0.4°C 86% Calm Calm -- 26.40 in894.0 mb - 0.00 in0.0 mm 0.00 in0.0 mm
07:55 PM 35.0°F1.7°C 31.2°F-0.4°C 86% Calm Calm -- 26.41 in894.3 mb - 0.00 in0.0 mm 0.00 in0.0 mm
08:00 PM 35.0°F1.7°C 31.5°F-0.3°C 87% Calm Calm -- 26.41 in894.3 mb - 0.00 in0.0 mm 0.00 in0.0 mm
08:10 PM 35.0°F1.7°C 31.8°F-0.1°C 88% Calm Calm -- 26.39 in893.7 mb - 0.00 in0.0 mm 0.00 in0.0 mm
08:15 PM 35.0°F1.7°C 32.1°F0.1°C 89% Calm Calm -- 26.40 in894.0 mb - 0.00 in0.0 mm 0.00 in0.0 mm
08:20 PM 34.8°F1.6°C 32.2°F0.1°C 90% Calm Calm -- 26.40 in894.0 mb - 0.00 in0.0 mm 0.00 in0.0 mm
08:25 PM 34.0°F1.1°C 31.4°F-0.3°C 90% Calm Calm -- 26.40 in894.0 mb - 0.00 in0.0 mm 0.00 in0.0 mm
08:30 PM 34.0°F1.1°C 31.6°F-0.2°C 91% Calm Calm -- 26.40 in894.0 mb - 0.00 in0.0 mm 0.00 in0.0 mm
08:35 PM 34.0°F1.1°C 31.9°F-0.1°C 92% Calm Calm -- 26.40 in894.0 mb - 0.00 in0.0 mm 0.00 in0.0 mm
08:40 PM 34.0°F1.1°C 31.9°F-0.1°C 92% Calm Calm -- 26.40 in894.0 mb - 0.00 in0.0 mm 0.00 in0.0 mm
08:45 PM 34.0°F1.1°C 31.9°F-0.1°C 92% Calm Calm -- 26.40 in894.0 mb - 0.00 in0.0 mm 0.00 in0.0 mm
08:50 PM 34.0°F1.1°C 31.9°F-0.1°C 92% Calm Calm -- 26.41 in894.3 mb - 0.00 in0.0 mm 0.00 in0.0 mm
08:55 PM 34.0°F1.1°C 31.9°F-0.1°C 92% Calm Calm -- 26.40 in894.0 mb - 0.00 in0.0 mm 0.00 in0.0 mm
09:00 PM 34.0°F1.1°C 32.5°F0.3°C 94% Calm Calm -- 26.41 in894.3 mb - 0.00 in0.0 mm 0.00 in0.0 mm
09:10 PM 34.0°F1.1°C 32.2°F0.1°C 93% Calm Calm -- 26.39 in893.7 mb - 0.00 in0.0 mm 0.00 in0.0 mm
09:15 PM 34.0°F1.1°C 31.9°F-0.1°C 92% Calm Calm -- 26.38 in893.3 mb - 0.00 in0.0 mm 0.00 in0.0 mm
09:20 PM 34.0°F1.1°C 32.2°F0.1°C 93% Calm Calm -- 26.39 in893.7 mb - 0.01 in0.3 mm 0.01 in0.3 mm
09:25 PM 33.0°F0.6°C 31.5°F-0.3°C 94% Calm Calm -- 26.40 in894.0 mb - 0.01 in0.3 mm 0.01 in0.3 mm
09:30 PM 33.0°F0.6°C 31.2°F-0.4°C 93% Calm Calm -- 26.40 in894.0 mb - 0.01 in0.3 mm 0.01 in0.3 mm
09:35 PM 33.0°F0.6°C 31.5°F-0.3°C 94% Calm Calm -- 26.40 in894.0 mb - 0.01 in0.3 mm 0.01 in0.3 mm
09:40 PM 33.0°F0.6°C 31.7°F-0.2°C 95% Calm Calm -- 26.40 in894.0 mb - 0.01 in0.3 mm 0.01 in0.3 mm
09:45 PM 33.0°F0.6°C 31.2°F-0.4°C 93% Calm Calm -- 26.40 in894.0 mb - 0.01 in0.3 mm 0.01 in0.3 mm
09:50 PM 33.0°F0.6°C 31.5°F-0.3°C 94% Calm Calm -- 26.41 in894.3 mb - 0.01 in0.3 mm 0.01 in0.3 mm
09:55 PM 33.0°F0.6°C 31.5°F-0.3°C 94% Calm Calm -- 26.41 in894.3 mb - 0.01 in0.3 mm 0.01 in0.3 mm
10:00 PM 33.0°F0.6°C 31.5°F-0.3°C 94% Calm Calm -- 26.41 in894.3 mb - 0.01 in0.3 mm 0.01 in0.3 mm
10:10 PM 33.0°F0.6°C 31.7°F-0.2°C 95% Calm Calm -- 26.40 in894.0 mb - 0.01 in0.3 mm 0.01 in0.3 mm
10:15 PM 33.0°F0.6°C 31.7°F-0.2°C 95% Calm Calm -- 26.41 in894.3 mb - 0.01 in0.3 mm 0.01 in0.3 mm
10:20 PM 32.0°F0.0°C 31.0°F-0.6°C 96% Calm Calm -- 26.40 in894.0 mb - 0.00 in0.0 mm 0.01 in0.3 mm
10:25 PM 33.0°F0.6°C 31.7°F-0.2°C 95% Calm Calm -- 26.41 in894.3 mb - 0.00 in0.0 mm 0.01 in0.3 mm
10:30 PM 33.0°F0.6°C 32.0°F0.0°C 96% Calm Calm -- 26.42 in894.7 mb - 0.00 in0.0 mm 0.01 in0.3 mm
10:35 PM 33.0°F0.6°C 32.0°F0.0°C 96% Calm Calm -- 26.40 in894.0 mb - 0.00 in0.0 mm 0.01 in0.3 mm
10:40 PM 33.0°F0.6°C 32.0°F0.0°C 96% Calm Calm -- 26.40 in894.0 mb - 0.00 in0.0 mm 0.01 in0.3 mm
10:45 PM 33.0°F0.6°C 32.0°F0.0°C 96% Calm Calm -- 26.39 in893.7 mb - 0.00 in0.0 mm 0.01 in0.3 mm
10:50 PM 33.0°F0.6°C 32.0°F0.0°C 96% Calm Calm -- 26.39 in893.7 mb - 0.00 in0.0 mm 0.01 in0.3 mm
10:55 PM 33.0°F0.6°C 32.0°F0.0°C 96% Calm Calm -- 26.40 in894.0 mb - 0.00 in0.0 mm 0.01 in0.3 mm
11:00 PM 33.0°F0.6°C 32.0°F0.0°C 96% Calm Calm -- 26.40 in894.0 mb - 0.00 in0.0 mm 0.01 in0.3 mm
11:10 PM 33.0°F0.6°C 31.7°F-0.2°C 95% Calm Calm -- 26.40 in894.0 mb - 0.00 in0.0 mm 0.01 in0.3 mm
11:15 PM 33.0°F0.6°C 31.7°F-0.2°C 95% Calm Calm -- 26.40 in894.0 mb - 0.00 in0.0 mm 0.01 in0.3 mm
11:20 PM 33.0°F0.6°C 32.0°F0.0°C 96% Calm Calm -- 26.40 in894.0 mb - 0.00 in0.0 mm 0.01 in0.3 mm
11:25 PM 33.0°F0.6°C 32.0°F0.0°C 96% Calm Calm -- 26.41 in894.3 mb - 0.00 in0.0 mm 0.01 in0.3 mm
11:30 PM 33.0°F0.6°C 31.7°F-0.2°C 95% Calm Calm -- 26.40 in894.0 mb - 0.00 in0.0 mm 0.01 in0.3 mm
11:35 PM 33.0°F0.6°C 31.7°F-0.2°C 95% Calm Calm -- 26.41 in894.3 mb - 0.00 in0.0 mm 0.01 in0.3 mm
11:40 PM 33.0°F0.6°C 31.7°F-0.2°C 95% Calm Calm -- 26.41 in894.3 mb - 0.00 in0.0 mm 0.01 in0.3 mm
11:45 PM 33.0°F0.6°C 31.7°F-0.2°C 95% Calm Calm -- 26.40 in894.0 mb - 0.00 in0.0 mm 0.01 in0.3 mm
11:50 PM 33.0°F0.6°C 31.7°F-0.2°C 95% Calm Calm -- 26.41 in894.3 mb - 0.00 in0.0 mm 0.01 in0.3 mm
11:55 PM 33.0°F0.6°C 31.7°F-0.2°C 95% Calm Calm -- 26.41 in894.3 mb - 0.00 in0.0 mm 0.01 in0.3 mm